Archival Weather

Vermilion Rgnl

Danville, Illinois (KDNV)

Report from: Saturday, April 13, 2024 11:55 PM CDT
Current time: Sunday, July 14, 2024 5:00 AM CDT

Current weather – Weather history – Daily summaries
Weather forecast

Temperature16.6°C (61.9°F)
Dew point5.8°C (42.4°F)
Winds 13 kts (6.7 m/s, 15 mph) South (180°)
Visibility10 mi. (16.1 km)
Clouds Sky clear
Altimeter29.88 in.Hg (1012 mB)
Relative humidity49 %
Density altitude371 ft. (113 m)
Remarks Fully automated report
Automated weather observing station with precipitation discriminator
Flight conditions Visual Meteorological Conditions
Raw dataKDNV 140455Z AUTO 18013KT 10SM CLR 17/06 A2988 RMK AO2 T01660058
An error has occurred. This application may no longer respond until reloaded. Reload 🗙